CYNM

Matagami Airport

ICAO Code CYNM
IATA Code YNM
Name Matagami Airport
Location Matagami, Quebec, CA
Elevation 918 Feet / 279.8 Meters
Latitude 49.76166667
Longitude -77.80277778
METAR CYNM 012300Z AUTO 35009G15KT 9SM FEW035 16/09 A2996 RMK SLP156 DENSITY ALT 1200FT
Extra information Display Charts and CFS
Display NOTAMS
Runway Length Width Surface Elevation
15 5001 ft 100 ft ASP 908 ft
33 5001 ft 100 ft ASP 918 ft